sensor_id;sensor_type;location;lat;lon;timestamp;P1;durP1;ratioP1;P2;durP2;ratioP2
14139;SDS011;7150;53.514;9.988;2024-03-07T00:02:17;22.43;;;11.77;;
14139;SDS011;7150;53.514;9.988;2024-03-07T00:04:43;20.93;;;11.03;;
14139;SDS011;7150;53.514;9.988;2024-03-07T00:07:08;18.73;;;10.90;;
14139;SDS011;7150;53.514;9.988;2024-03-07T00:09:34;16.63;;;10.07;;
14139;SDS011;7150;53.514;9.988;2024-03-07T00:12:03;17.03;;;10.17;;
14139;SDS011;7150;53.514;9.988;2024-03-07T00:14:29;16.23;;;10.03;;
14139;SDS011;7150;53.514;9.988;2024-03-07T00:16:55;16.97;;;10.40;;
14139;SDS011;7150;53.514;9.988;2024-03-07T00:19:21;15.43;;;10.40;;
14139;SDS011;7150;53.514;9.988;2024-03-07T00:21:50;14.23;;;9.60;;
14139;SDS011;7150;53.514;9.988;2024-03-07T00:24:17;17.70;;;10.53;;
14139;SDS011;7150;53.514;9.988;2024-03-07T00:26:43;16.67;;;9.97;;
14139;SDS011;7150;53.514;9.988;2024-03-07T00:29:09;15.10;;;9.33;;
14139;SDS011;7150;53.514;9.988;2024-03-07T00:31:34;15.43;;;9.87;;
14139;SDS011;7150;53.514;9.988;2024-03-07T00:33:59;16.93;;;9.50;;
14139;SDS011;7150;53.514;9.988;2024-03-07T00:36:25;19.80;;;10.27;;
14139;SDS011;7150;53.514;9.988;2024-03-07T00:38:51;18.73;;;10.43;;
14139;SDS011;7150;53.514;9.988;2024-03-07T00:41:17;16.57;;;9.97;;
14139;SDS011;7150;53.514;9.988;2024-03-07T00:43:44;17.27;;;10.03;;
14139;SDS011;7150;53.514;9.988;2024-03-07T00:46:09;15.67;;;9.30;;
14139;SDS011;7150;53.514;9.988;2024-03-07T00:48:36;14.63;;;9.20;;
14139;SDS011;7150;53.514;9.988;2024-03-07T00:51:02;16.40;;;8.90;;
14139;SDS011;7150;53.514;9.988;2024-03-07T00:53:29;15.20;;;8.93;;
14139;SDS011;7150;53.514;9.988;2024-03-07T00:55:54;15.80;;;8.53;;
14139;SDS011;7150;53.514;9.988;2024-03-07T00:58:20;16.50;;;9.27;;
14139;SDS011;7150;53.514;9.988;2024-03-07T01:00:45;17.23;;;8.93;;
14139;SDS011;7150;53.514;9.988;2024-03-07T01:03:11;13.43;;;7.90;;
14139;SDS011;7150;53.514;9.988;2024-03-07T01:05:38;16.17;;;8.57;;
14139;SDS011;7150;53.514;9.988;2024-03-07T01:08:04;16.03;;;8.73;;
14139;SDS011;7150;53.514;9.988;2024-03-07T01:10:30;13.30;;;8.47;;
14139;SDS011;7150;53.514;9.988;2024-03-07T01:12:56;14.03;;;7.87;;
14139;SDS011;7150;53.514;9.988;2024-03-07T01:15:26;13.03;;;8.27;;
14139;SDS011;7150;53.514;9.988;2024-03-07T01:17:51;13.60;;;7.83;;
14139;SDS011;7150;53.514;9.988;2024-03-07T01:20:17;17.00;;;9.07;;
14139;SDS011;7150;53.514;9.988;2024-03-07T01:22:43;19.53;;;8.80;;
14139;SDS011;7150;53.514;9.988;2024-03-07T01:25:09;16.40;;;9.30;;
14139;SDS011;7150;53.514;9.988;2024-03-07T01:27:34;15.50;;;8.83;;
14139;SDS011;7150;53.514;9.988;2024-03-07T01:30:00;15.47;;;8.17;;
14139;SDS011;7150;53.514;9.988;2024-03-07T01:32:26;15.43;;;9.07;;
14139;SDS011;7150;53.514;9.988;2024-03-07T01:34:53;17.57;;;9.00;;
14139;SDS011;7150;53.514;9.988;2024-03-07T01:37:18;19.33;;;10.00;;
14139;SDS011;7150;53.514;9.988;2024-03-07T01:39:44;15.87;;;8.57;;
14139;SDS011;7150;53.514;9.988;2024-03-07T01:42:09;17.47;;;9.80;;
14139;SDS011;7150;53.514;9.988;2024-03-07T01:44:35;17.40;;;9.63;;
14139;SDS011;7150;53.514;9.988;2024-03-07T01:47:00;18.30;;;9.53;;
14139;SDS011;7150;53.514;9.988;2024-03-07T01:49:29;16.17;;;9.27;;
14139;SDS011;7150;53.514;9.988;2024-03-07T01:51:55;15.60;;;8.23;;
14139;SDS011;7150;53.514;9.988;2024-03-07T01:54:22;18.83;;;8.97;;
14139;SDS011;7150;53.514;9.988;2024-03-07T01:56:48;15.07;;;8.63;;
14139;SDS011;7150;53.514;9.988;2024-03-07T01:59:14;16.17;;;8.37;;
14139;SDS011;7150;53.514;9.988;2024-03-07T02:01:41;15.93;;;8.87;;
14139;SDS011;7150;53.514;9.988;2024-03-07T02:04:08;15.20;;;8.93;;
14139;SDS011;7150;53.514;9.988;2024-03-07T02:06:33;16.77;;;8.77;;
14139;SDS011;7150;53.514;9.988;2024-03-07T02:09:00;16.67;;;8.70;;
14139;SDS011;7150;53.514;9.988;2024-03-07T02:11:27;17.47;;;8.93;;
14139;SDS011;7150;53.514;9.988;2024-03-07T02:13:52;18.17;;;8.67;;
14139;SDS011;7150;53.514;9.988;2024-03-07T02:16:18;17.37;;;8.53;;
14139;SDS011;7150;53.514;9.988;2024-03-07T02:18:44;18.07;;;9.23;;
14139;SDS011;7150;53.514;9.988;2024-03-07T02:21:09;16.37;;;9.23;;
14139;SDS011;7150;53.514;9.988;2024-03-07T02:23:35;15.87;;;9.87;;
14139;SDS011;7150;53.514;9.988;2024-03-07T02:26:01;17.47;;;9.63;;
14139;SDS011;7150;53.514;9.988;2024-03-07T02:28:26;16.43;;;8.83;;
14139;SDS011;7150;53.514;9.988;2024-03-07T02:30:52;16.20;;;9.37;;
14139;SDS011;7150;53.514;9.988;2024-03-07T02:33:18;20.87;;;10.37;;
14139;SDS011;7150;53.514;9.988;2024-03-07T02:35:43;18.70;;;9.63;;
14139;SDS011;7150;53.514;9.988;2024-03-07T02:38:09;18.13;;;9.13;;
14139;SDS011;7150;53.514;9.988;2024-03-07T02:40:34;19.60;;;10.53;;
14139;SDS011;7150;53.514;9.988;2024-03-07T02:43:00;17.37;;;10.20;;
14139;SDS011;7150;53.514;9.988;2024-03-07T02:45:29;18.67;;;10.47;;
14139;SDS011;7150;53.514;9.988;2024-03-07T02:47:55;19.43;;;10.57;;
14139;SDS011;7150;53.514;9.988;2024-03-07T02:50:21;18.17;;;10.60;;
14139;SDS011;7150;53.514;9.988;2024-03-07T02:52:47;28.00;;;15.03;;
14139;SDS011;7150;53.514;9.988;2024-03-07T02:55:14;25.47;;;15.57;;
14139;SDS011;7150;53.514;9.988;2024-03-07T02:57:40;22.50;;;12.70;;
14139;SDS011;7150;53.514;9.988;2024-03-07T03:00:06;19.17;;;11.20;;
14139;SDS011;7150;53.514;9.988;2024-03-07T03:02:44;18.50;;;10.80;;
14139;SDS011;7150;53.514;9.988;2024-03-07T03:05:13;17.77;;;10.17;;
14139;SDS011;7150;53.514;9.988;2024-03-07T03:07:43;17.97;;;9.77;;
14139;SDS011;7150;53.514;9.988;2024-03-07T03:10:17;18.33;;;10.20;;
14139;SDS011;7150;53.514;9.988;2024-03-07T03:12:45;18.10;;;9.77;;
14139;SDS011;7150;53.514;9.988;2024-03-07T03:15:12;19.07;;;10.07;;
14139;SDS011;7150;53.514;9.988;2024-03-07T03:17:37;18.60;;;10.00;;
14139;SDS011;7150;53.514;9.988;2024-03-07T03:20:03;19.47;;;11.10;;
14139;SDS011;7150;53.514;9.988;2024-03-07T03:22:40;18.33;;;10.33;;
14139;SDS011;7150;53.514;9.988;2024-03-07T03:25:06;21.27;;;11.13;;
14139;SDS011;7150;53.514;9.988;2024-03-07T03:27:32;19.20;;;10.33;;
14139;SDS011;7150;53.514;9.988;2024-03-07T03:29:57;15.83;;;9.40;;
14139;SDS011;7150;53.514;9.988;2024-03-07T03:32:25;17.27;;;9.33;;
14139;SDS011;7150;53.514;9.988;2024-03-07T03:34:50;16.93;;;9.70;;
14139;SDS011;7150;53.514;9.988;2024-03-07T03:37:17;18.03;;;9.50;;
14139;SDS011;7150;53.514;9.988;2024-03-07T03:39:43;16.30;;;9.87;;
14139;SDS011;7150;53.514;9.988;2024-03-07T03:42:08;17.07;;;9.10;;
14139;SDS011;7150;53.514;9.988;2024-03-07T03:44:34;16.70;;;8.87;;
14139;SDS011;7150;53.514;9.988;2024-03-07T03:47:00;16.53;;;8.30;;
14139;SDS011;7150;53.514;9.988;2024-03-07T03:49:27;17.73;;;9.33;;
14139;SDS011;7150;53.514;9.988;2024-03-07T03:51:52;16.87;;;8.60;;
14139;SDS011;7150;53.514;9.988;2024-03-07T03:54:18;19.57;;;10.03;;
14139;SDS011;7150;53.514;9.988;2024-03-07T03:56:43;25.50;;;12.90;;
14139;SDS011;7150;53.514;9.988;2024-03-07T03:59:09;17.83;;;9.70;;
14139;SDS011;7150;53.514;9.988;2024-03-07T04:01:34;15.97;;;9.50;;
14139;SDS011;7150;53.514;9.988;2024-03-07T04:04:00;15.20;;;8.80;;
14139;SDS011;7150;53.514;9.988;2024-03-07T04:06:26;13.77;;;8.77;;
14139;SDS011;7150;53.514;9.988;2024-03-07T04:08:51;15.47;;;8.00;;
14139;SDS011;7150;53.514;9.988;2024-03-07T04:11:17;15.97;;;8.47;;
14139;SDS011;7150;53.514;9.988;2024-03-07T04:13:44;16.33;;;8.80;;
14139;SDS011;7150;53.514;9.988;2024-03-07T04:16:11;14.40;;;8.10;;
14139;SDS011;7150;53.514;9.988;2024-03-07T04:18:36;13.77;;;8.37;;
14139;SDS011;7150;53.514;9.988;2024-03-07T04:21:02;12.03;;;7.57;;
14139;SDS011;7150;53.514;9.988;2024-03-07T04:23:27;15.53;;;8.60;;
14139;SDS011;7150;53.514;9.988;2024-03-07T04:25:53;15.27;;;8.20;;
14139;SDS011;7150;53.514;9.988;2024-03-07T04:28:19;12.43;;;7.57;;
14139;SDS011;7150;53.514;9.988;2024-03-07T04:30:45;13.20;;;7.17;;
14139;SDS011;7150;53.514;9.988;2024-03-07T04:33:11;11.87;;;8.00;;
14139;SDS011;7150;53.514;9.988;2024-03-07T04:35:36;14.67;;;7.90;;
14139;SDS011;7150;53.514;9.988;2024-03-07T04:38:02;13.20;;;7.60;;
14139;SDS011;7150;53.514;9.988;2024-03-07T04:40:28;14.43;;;8.57;;
14139;SDS011;7150;53.514;9.988;2024-03-07T04:42:53;16.20;;;8.13;;
14139;SDS011;7150;53.514;9.988;2024-03-07T04:45:19;14.90;;;7.80;;
14139;SDS011;7150;53.514;9.988;2024-03-07T04:47:46;14.33;;;8.77;;
14139;SDS011;7150;53.514;9.988;2024-03-07T04:50:12;13.63;;;7.80;;
14139;SDS011;7150;53.514;9.988;2024-03-07T04:52:38;13.60;;;7.97;;
14139;SDS011;7150;53.514;9.988;2024-03-07T04:55:07;12.77;;;7.70;;
14139;SDS011;7150;53.514;9.988;2024-03-07T04:57:38;16.87;;;8.40;;
14139;SDS011;7150;53.514;9.988;2024-03-07T05:00:08;12.10;;;7.20;;
14139;SDS011;7150;53.514;9.988;2024-03-07T05:02:39;12.10;;;7.93;;
14139;SDS011;7150;53.514;9.988;2024-03-07T05:05:05;12.67;;;7.40;;
14139;SDS011;7150;53.514;9.988;2024-03-07T05:07:30;12.33;;;7.97;;
14139;SDS011;7150;53.514;9.988;2024-03-07T05:09:56;12.70;;;7.90;;
14139;SDS011;7150;53.514;9.988;2024-03-07T05:12:22;12.70;;;7.60;;
14139;SDS011;7150;53.514;9.988;2024-03-07T05:14:47;15.33;;;8.17;;
14139;SDS011;7150;53.514;9.988;2024-03-07T05:17:13;17.27;;;8.63;;
14139;SDS011;7150;53.514;9.988;2024-03-07T05:19:39;13.23;;;8.23;;
14139;SDS011;7150;53.514;9.988;2024-03-07T05:22:04;12.63;;;8.00;;
14139;SDS011;7150;53.514;9.988;2024-03-07T05:24:31;14.70;;;8.40;;
14139;SDS011;7150;53.514;9.988;2024-03-07T05:27:00;12.70;;;7.37;;
14139;SDS011;7150;53.514;9.988;2024-03-07T05:29:25;13.87;;;7.67;;
14139;SDS011;7150;53.514;9.988;2024-03-07T05:31:51;13.87;;;7.60;;
14139;SDS011;7150;53.514;9.988;2024-03-07T05:34:17;11.80;;;7.70;;
14139;SDS011;7150;53.514;9.988;2024-03-07T05:36:48;13.57;;;7.53;;
14139;SDS011;7150;53.514;9.988;2024-03-07T05:39:14;10.63;;;7.33;;
14139;SDS011;7150;53.514;9.988;2024-03-07T05:41:41;12.67;;;7.63;;
14139;SDS011;7150;53.514;9.988;2024-03-07T05:44:07;13.53;;;7.93;;
14139;SDS011;7150;53.514;9.988;2024-03-07T05:46:36;11.60;;;7.83;;
14139;SDS011;7150;53.514;9.988;2024-03-07T05:49:06;12.73;;;7.30;;
14139;SDS011;7150;53.514;9.988;2024-03-07T05:51:34;12.13;;;7.87;;
14139;SDS011;7150;53.514;9.988;2024-03-07T05:54:00;12.80;;;7.00;;
14139;SDS011;7150;53.514;9.988;2024-03-07T05:56:25;14.37;;;7.73;;
14139;SDS011;7150;53.514;9.988;2024-03-07T05:58:52;12.87;;;7.67;;
14139;SDS011;7150;53.514;9.988;2024-03-07T06:01:17;12.07;;;7.70;;
14139;SDS011;7150;53.514;9.988;2024-03-07T06:03:43;13.93;;;8.40;;
14139;SDS011;7150;53.514;9.988;2024-03-07T06:06:10;12.10;;;7.40;;
14139;SDS011;7150;53.514;9.988;2024-03-07T06:08:36;12.57;;;7.50;;
14139;SDS011;7150;53.514;9.988;2024-03-07T06:11:02;12.67;;;7.50;;
14139;SDS011;7150;53.514;9.988;2024-03-07T06:13:28;12.33;;;7.73;;
14139;SDS011;7150;53.514;9.988;2024-03-07T06:15:53;12.13;;;7.33;;
14139;SDS011;7150;53.514;9.988;2024-03-07T06:18:19;14.57;;;7.27;;
14139;SDS011;7150;53.514;9.988;2024-03-07T06:20:44;10.87;;;7.53;;
14139;SDS011;7150;53.514;9.988;2024-03-07T06:23:10;14.40;;;8.00;;
14139;SDS011;7150;53.514;9.988;2024-03-07T06:25:41;12.83;;;8.07;;
14139;SDS011;7150;53.514;9.988;2024-03-07T06:28:16;12.20;;;7.50;;
14139;SDS011;7150;53.514;9.988;2024-03-07T06:30:43;13.03;;;8.73;;
14139;SDS011;7150;53.514;9.988;2024-03-07T06:33:10;12.97;;;7.47;;
14139;SDS011;7150;53.514;9.988;2024-03-07T06:35:36;12.80;;;8.40;;
14139;SDS011;7150;53.514;9.988;2024-03-07T06:38:03;12.40;;;8.00;;
14139;SDS011;7150;53.514;9.988;2024-03-07T06:40:30;11.80;;;8.10;;
14139;SDS011;7150;53.514;9.988;2024-03-07T06:42:57;12.87;;;8.23;;
14139;SDS011;7150;53.514;9.988;2024-03-07T06:45:26;13.40;;;8.73;;
14139;SDS011;7150;53.514;9.988;2024-03-07T06:47:51;11.63;;;8.07;;
14139;SDS011;7150;53.514;9.988;2024-03-07T06:50:20;13.17;;;7.70;;
14139;SDS011;7150;53.514;9.988;2024-03-07T06:52:46;10.97;;;7.27;;
14139;SDS011;7150;53.514;9.988;2024-03-07T06:55:15;10.77;;;7.40;;
14139;SDS011;7150;53.514;9.988;2024-03-07T06:57:44;12.63;;;7.83;;
14139;SDS011;7150;53.514;9.988;2024-03-07T07:00:11;12.77;;;7.77;;
14139;SDS011;7150;53.514;9.988;2024-03-07T07:02:38;14.53;;;8.47;;
14139;SDS011;7150;53.514;9.988;2024-03-07T07:05:04;13.17;;;7.60;;
14139;SDS011;7150;53.514;9.988;2024-03-07T07:07:35;10.93;;;7.30;;
14139;SDS011;7150;53.514;9.988;2024-03-07T07:10:06;15.93;;;8.13;;
14139;SDS011;7150;53.514;9.988;2024-03-07T07:12:33;11.60;;;7.13;;
14139;SDS011;7150;53.514;9.988;2024-03-07T07:14:59;10.57;;;7.77;;
14139;SDS011;7150;53.514;9.988;2024-03-07T07:17:25;11.27;;;7.20;;
14139;SDS011;7150;53.514;9.988;2024-03-07T07:19:54;10.63;;;7.70;;
14139;SDS011;7150;53.514;9.988;2024-03-07T07:22:20;11.83;;;7.87;;
14139;SDS011;7150;53.514;9.988;2024-03-07T07:24:46;12.60;;;8.10;;
14139;SDS011;7150;53.514;9.988;2024-03-07T07:27:12;15.13;;;8.37;;
14139;SDS011;7150;53.514;9.988;2024-03-07T07:29:37;11.67;;;8.60;;
14139;SDS011;7150;53.514;9.988;2024-03-07T07:32:04;11.10;;;7.80;;
14139;SDS011;7150;53.514;9.988;2024-03-07T07:34:30;13.03;;;7.87;;
14139;SDS011;7150;53.514;9.988;2024-03-07T07:36:55;12.03;;;7.70;;
14139;SDS011;7150;53.514;9.988;2024-03-07T07:39:21;10.97;;;7.27;;
14139;SDS011;7150;53.514;9.988;2024-03-07T07:41:47;13.30;;;7.20;;
14139;SDS011;7150;53.514;9.988;2024-03-07T07:44:12;10.57;;;7.03;;
14139;SDS011;7150;53.514;9.988;2024-03-07T07:46:38;9.93;;;6.60;;
14139;SDS011;7150;53.514;9.988;2024-03-07T07:49:05;11.20;;;7.37;;
14139;SDS011;7150;53.514;9.988;2024-03-07T07:51:31;11.07;;;7.27;;
14139;SDS011;7150;53.514;9.988;2024-03-07T07:53:56;10.50;;;6.90;;
14139;SDS011;7150;53.514;9.988;2024-03-07T07:56:22;10.97;;;7.87;;
14139;SDS011;7150;53.514;9.988;2024-03-07T07:58:49;12.00;;;7.30;;
14139;SDS011;7150;53.514;9.988;2024-03-07T08:01:15;13.57;;;7.50;;
14139;SDS011;7150;53.514;9.988;2024-03-07T08:03:44;9.57;;;6.97;;
14139;SDS011;7150;53.514;9.988;2024-03-07T08:06:09;9.37;;;7.13;;
14139;SDS011;7150;53.514;9.988;2024-03-07T08:08:35;10.77;;;6.93;;
14139;SDS011;7150;53.514;9.988;2024-03-07T08:11:00;8.77;;;6.60;;
14139;SDS011;7150;53.514;9.988;2024-03-07T08:13:26;9.07;;;6.07;;
14139;SDS011;7150;53.514;9.988;2024-03-07T08:15:52;9.80;;;6.83;;
14139;SDS011;7150;53.514;9.988;2024-03-07T08:18:18;10.53;;;6.80;;
14139;SDS011;7150;53.514;9.988;2024-03-07T08:20:45;10.77;;;6.63;;
14139;SDS011;7150;53.514;9.988;2024-03-07T08:23:10;9.23;;;6.00;;
14139;SDS011;7150;53.514;9.988;2024-03-07T08:25:37;11.00;;;6.10;;
14139;SDS011;7150;53.514;9.988;2024-03-07T08:28:06;8.70;;;6.10;;
14139;SDS011;7150;53.514;9.988;2024-03-07T08:30:33;9.57;;;5.80;;
14139;SDS011;7150;53.514;9.988;2024-03-07T08:32:59;10.43;;;6.60;;
14139;SDS011;7150;53.514;9.988;2024-03-07T08:35:27;7.47;;;5.20;;
14139;SDS011;7150;53.514;9.988;2024-03-07T08:37:54;10.47;;;6.37;;
14139;SDS011;7150;53.514;9.988;2024-03-07T08:40:24;7.63;;;6.00;;
14139;SDS011;7150;53.514;9.988;2024-03-07T08:42:51;11.00;;;6.33;;
14139;SDS011;7150;53.514;9.988;2024-03-07T08:45:21;8.97;;;6.67;;
14139;SDS011;7150;53.514;9.988;2024-03-07T08:47:47;9.70;;;6.27;;
14139;SDS011;7150;53.514;9.988;2024-03-07T08:50:14;9.37;;;6.07;;
14139;SDS011;7150;53.514;9.988;2024-03-07T08:52:45;10.83;;;6.70;;
14139;SDS011;7150;53.514;9.988;2024-03-07T08:55:12;9.73;;;6.93;;
14139;SDS011;7150;53.514;9.988;2024-03-07T08:57:39;10.37;;;6.63;;
14139;SDS011;7150;53.514;9.988;2024-03-07T09:00:06;10.60;;;6.33;;
14139;SDS011;7150;53.514;9.988;2024-03-07T09:02:38;10.90;;;5.70;;
14139;SDS011;7150;53.514;9.988;2024-03-07T09:05:04;9.43;;;6.67;;
14139;SDS011;7150;53.514;9.988;2024-03-07T09:07:30;8.80;;;5.73;;
14139;SDS011;7150;53.514;9.988;2024-03-07T09:09:56;8.53;;;5.20;;
14139;SDS011;7150;53.514;9.988;2024-03-07T09:12:22;7.33;;;5.67;;
14139;SDS011;7150;53.514;9.988;2024-03-07T09:14:50;9.43;;;5.70;;
14139;SDS011;7150;53.514;9.988;2024-03-07T09:17:17;8.53;;;5.80;;
14139;SDS011;7150;53.514;9.988;2024-03-07T09:19:42;10.57;;;5.80;;
14139;SDS011;7150;53.514;9.988;2024-03-07T09:22:08;9.70;;;6.00;;
14139;SDS011;7150;53.514;9.988;2024-03-07T09:24:34;8.83;;;5.83;;
14139;SDS011;7150;53.514;9.988;2024-03-07T09:27:05;7.87;;;5.20;;
14139;SDS011;7150;53.514;9.988;2024-03-07T09:29:31;8.80;;;5.47;;
14139;SDS011;7150;53.514;9.988;2024-03-07T09:31:56;8.80;;;5.40;;
14139;SDS011;7150;53.514;9.988;2024-03-07T09:34:22;9.90;;;5.57;;
14139;SDS011;7150;53.514;9.988;2024-03-07T09:36:49;7.40;;;5.17;;
14139;SDS011;7150;53.514;9.988;2024-03-07T09:39:15;9.63;;;5.70;;
14139;SDS011;7150;53.514;9.988;2024-03-07T09:41:41;9.57;;;5.97;;
14139;SDS011;7150;53.514;9.988;2024-03-07T09:44:17;8.27;;;6.23;;
14139;SDS011;7150;53.514;9.988;2024-03-07T09:46:48;11.60;;;6.50;;
14139;SDS011;7150;53.514;9.988;2024-03-07T09:49:15;9.17;;;6.00;;
14139;SDS011;7150;53.514;9.988;2024-03-07T09:51:43;10.50;;;6.27;;
14139;SDS011;7150;53.514;9.988;2024-03-07T09:54:10;10.97;;;5.80;;
14139;SDS011;7150;53.514;9.988;2024-03-07T09:56:36;10.27;;;5.93;;
14139;SDS011;7150;53.514;9.988;2024-03-07T09:59:04;12.83;;;6.40;;
14139;SDS011;7150;53.514;9.988;2024-03-07T10:01:34;11.20;;;6.37;;
14139;SDS011;7150;53.514;9.988;2024-03-07T10:04:02;11.50;;;7.10;;
14139;SDS011;7150;53.514;9.988;2024-03-07T10:06:48;13.17;;;7.30;;
14139;SDS011;7150;53.514;9.988;2024-03-07T10:09:14;10.73;;;6.13;;
14139;SDS011;7150;53.514;9.988;2024-03-07T10:11:41;10.90;;;6.63;;
14139;SDS011;7150;53.514;9.988;2024-03-07T10:14:07;10.20;;;6.40;;
14139;SDS011;7150;53.514;9.988;2024-03-07T10:16:32;12.73;;;7.47;;
14139;SDS011;7150;53.514;9.988;2024-03-07T10:18:58;11.47;;;6.80;;
14139;SDS011;7150;53.514;9.988;2024-03-07T10:21:26;14.20;;;8.00;;
14139;SDS011;7150;53.514;9.988;2024-03-07T10:24:03;14.47;;;8.20;;
14139;SDS011;7150;53.514;9.988;2024-03-07T10:26:34;11.97;;;7.03;;
14139;SDS011;7150;53.514;9.988;2024-03-07T10:29:00;12.63;;;7.37;;
14139;SDS011;7150;53.514;9.988;2024-03-07T10:31:30;13.53;;;7.60;;
14139;SDS011;7150;53.514;9.988;2024-03-07T10:34:02;12.57;;;6.60;;
14139;SDS011;7150;53.514;9.988;2024-03-07T10:36:31;12.63;;;6.80;;
14139;SDS011;7150;53.514;9.988;2024-03-07T10:39:00;10.17;;;7.50;;
14139;SDS011;7150;53.514;9.988;2024-03-07T10:41:28;11.27;;;7.57;;
14139;SDS011;7150;53.514;9.988;2024-03-07T10:43:55;18.07;;;9.13;;
14139;SDS011;7150;53.514;9.988;2024-03-07T10:46:25;14.63;;;8.47;;
14139;SDS011;7150;53.514;9.988;2024-03-07T10:48:55;12.50;;;7.67;;
14139;SDS011;7150;53.514;9.988;2024-03-07T10:51:34;14.73;;;8.13;;
14139;SDS011;7150;53.514;9.988;2024-03-07T10:54:20;14.57;;;8.40;;
14139;SDS011;7150;53.514;9.988;2024-03-07T10:59:49;12.80;;;8.00;;
14139;SDS011;7150;53.514;9.988;2024-03-07T11:04:52;13.80;;;7.30;;
14139;SDS011;7150;53.514;9.988;2024-03-07T11:07:19;12.07;;;7.00;;
14139;SDS011;7150;53.514;9.988;2024-03-07T11:09:47;14.37;;;8.07;;
14139;SDS011;7150;53.514;9.988;2024-03-07T11:12:14;12.13;;;7.13;;
14139;SDS011;7150;53.514;9.988;2024-03-07T11:14:41;13.50;;;7.43;;
14139;SDS011;7150;53.514;9.988;2024-03-07T11:17:08;11.37;;;7.63;;
14139;SDS011;7150;53.514;9.988;2024-03-07T11:19:38;15.43;;;8.17;;
14139;SDS011;7150;53.514;9.988;2024-03-07T11:22:04;11.80;;;6.90;;
14139;SDS011;7150;53.514;9.988;2024-03-07T11:24:40;13.53;;;8.13;;
14139;SDS011;7150;53.514;9.988;2024-03-07T11:27:08;10.43;;;6.63;;
14139;SDS011;7150;53.514;9.988;2024-03-07T11:29:41;12.97;;;7.23;;
14139;SDS011;7150;53.514;9.988;2024-03-07T11:32:08;12.77;;;7.47;;
14139;SDS011;7150;53.514;9.988;2024-03-07T11:34:38;10.27;;;6.70;;
14139;SDS011;7150;53.514;9.988;2024-03-07T11:37:06;12.07;;;8.20;;
14139;SDS011;7150;53.514;9.988;2024-03-07T11:39:46;10.47;;;7.17;;
14139;SDS011;7150;53.514;9.988;2024-03-07T11:42:19;13.27;;;8.77;;
14139;SDS011;7150;53.514;9.988;2024-03-07T11:44:48;12.90;;;8.17;;
14139;SDS011;7150;53.514;9.988;2024-03-07T11:47:16;14.53;;;7.57;;
14139;SDS011;7150;53.514;9.988;2024-03-07T11:49:43;12.13;;;7.47;;
14139;SDS011;7150;53.514;9.988;2024-03-07T11:52:08;13.73;;;7.83;;
14139;SDS011;7150;53.514;9.988;2024-03-07T11:54:38;13.37;;;7.83;;
14139;SDS011;7150;53.514;9.988;2024-03-07T11:57:11;13.30;;;7.33;;
14139;SDS011;7150;53.514;9.988;2024-03-07T11:59:41;13.17;;;8.33;;
14139;SDS011;7150;53.514;9.988;2024-03-07T12:02:13;14.77;;;8.10;;
14139;SDS011;7150;53.514;9.988;2024-03-07T12:04:40;11.93;;;7.50;;
14139;SDS011;7150;53.514;9.988;2024-03-07T12:07:06;14.00;;;8.53;;
14139;SDS011;7150;53.514;9.988;2024-03-07T12:09:35;12.27;;;7.67;;
14139;SDS011;7150;53.514;9.988;2024-03-07T12:12:02;14.03;;;8.60;;
14139;SDS011;7150;53.514;9.988;2024-03-07T12:14:28;14.87;;;8.33;;
14139;SDS011;7150;53.514;9.988;2024-03-07T12:16:55;13.43;;;8.50;;
14139;SDS011;7150;53.514;9.988;2024-03-07T12:19:21;13.70;;;8.80;;
14139;SDS011;7150;53.514;9.988;2024-03-07T12:21:48;12.53;;;7.73;;
14139;SDS011;7150;53.514;9.988;2024-03-07T12:24:14;15.53;;;8.17;;
14139;SDS011;7150;53.514;9.988;2024-03-07T12:26:40;15.33;;;8.37;;
14139;SDS011;7150;53.514;9.988;2024-03-07T12:29:10;13.60;;;8.67;;
14139;SDS011;7150;53.514;9.988;2024-03-07T12:31:39;14.70;;;9.23;;
14139;SDS011;7150;53.514;9.988;2024-03-07T12:34:07;12.80;;;7.80;;
14139;SDS011;7150;53.514;9.988;2024-03-07T12:36:34;13.53;;;8.20;;
14139;SDS011;7150;53.514;9.988;2024-03-07T12:39:10;13.23;;;7.70;;
14139;SDS011;7150;53.514;9.988;2024-03-07T12:41:56;14.37;;;8.33;;
14139;SDS011;7150;53.514;9.988;2024-03-07T12:44:21;14.73;;;9.10;;
14139;SDS011;7150;53.514;9.988;2024-03-07T12:46:51;14.97;;;8.90;;
14139;SDS011;7150;53.514;9.988;2024-03-07T12:49:21;14.37;;;8.17;;
14139;SDS011;7150;53.514;9.988;2024-03-07T12:51:50;13.67;;;8.23;;
14139;SDS011;7150;53.514;9.988;2024-03-07T12:54:15;14.03;;;8.60;;
14139;SDS011;7150;53.514;9.988;2024-03-07T12:56:41;13.80;;;8.67;;
14139;SDS011;7150;53.514;9.988;2024-03-07T12:59:06;14.60;;;8.37;;
14139;SDS011;7150;53.514;9.988;2024-03-07T13:01:34;12.93;;;8.70;;
14139;SDS011;7150;53.514;9.988;2024-03-07T13:04:02;12.63;;;8.23;;
14139;SDS011;7150;53.514;9.988;2024-03-07T13:06:29;13.00;;;8.23;;
14139;SDS011;7150;53.514;9.988;2024-03-07T13:08:55;15.30;;;9.13;;
14139;SDS011;7150;53.514;9.988;2024-03-07T13:11:23;16.20;;;9.00;;
14139;SDS011;7150;53.514;9.988;2024-03-07T13:13:52;13.43;;;8.77;;
14139;SDS011;7150;53.514;9.988;2024-03-07T13:16:18;13.73;;;8.80;;
14139;SDS011;7150;53.514;9.988;2024-03-07T13:18:43;12.83;;;7.93;;
14139;SDS011;7150;53.514;9.988;2024-03-07T13:21:10;16.60;;;9.23;;
14139;SDS011;7150;53.514;9.988;2024-03-07T13:23:42;15.47;;;10.27;;
14139;SDS011;7150;53.514;9.988;2024-03-07T13:26:08;14.60;;;8.73;;
14139;SDS011;7150;53.514;9.988;2024-03-07T13:28:41;15.80;;;9.37;;
14139;SDS011;7150;53.514;9.988;2024-03-07T13:31:07;15.83;;;9.17;;
14139;SDS011;7150;53.514;9.988;2024-03-07T13:33:33;13.53;;;8.50;;
14139;SDS011;7150;53.514;9.988;2024-03-07T13:35:59;13.07;;;8.37;;
14139;SDS011;7150;53.514;9.988;2024-03-07T13:38:26;16.20;;;9.43;;
14139;SDS011;7150;53.514;9.988;2024-03-07T13:40:51;14.90;;;8.37;;
14139;SDS011;7150;53.514;9.988;2024-03-07T13:43:18;15.87;;;9.53;;
14139;SDS011;7150;53.514;9.988;2024-03-07T13:45:43;17.60;;;9.53;;
14139;SDS011;7150;53.514;9.988;2024-03-07T13:48:10;13.60;;;8.97;;
14139;SDS011;7150;53.514;9.988;2024-03-07T13:50:38;14.67;;;9.20;;
14139;SDS011;7150;53.514;9.988;2024-03-07T13:53:05;12.73;;;8.47;;
14139;SDS011;7150;53.514;9.988;2024-03-07T13:56:07;15.13;;;8.87;;
14139;SDS011;7150;53.514;9.988;2024-03-07T14:13:34;12.60;;;8.43;;
14139;SDS011;7150;53.514;9.988;2024-03-07T14:31:13;15.37;;;9.10;;
14139;SDS011;7150;53.514;9.988;2024-03-07T14:36:41;13.33;;;8.87;;
14139;SDS011;7150;53.514;9.988;2024-03-07T14:39:11;11.90;;;8.13;;
14139;SDS011;7150;53.514;9.988;2024-03-07T14:42:06;17.80;;;9.53;;
14139;SDS011;7150;53.514;9.988;2024-03-07T14:44:35;14.37;;;8.07;;
14139;SDS011;7150;53.514;9.988;2024-03-07T14:47:03;13.70;;;8.27;;
14139;SDS011;7150;53.514;9.988;2024-03-07T14:49:31;16.10;;;9.00;;
14139;SDS011;7150;53.514;9.988;2024-03-07T14:51:57;16.30;;;9.43;;
14139;SDS011;7150;53.514;9.988;2024-03-07T14:54:23;14.93;;;9.53;;
14139;SDS011;7150;53.514;9.988;2024-03-07T14:56:49;13.70;;;8.73;;
14139;SDS011;7150;53.514;9.988;2024-03-07T14:59:14;13.70;;;8.13;;
14139;SDS011;7150;53.514;9.988;2024-03-07T15:01:40;16.67;;;8.83;;
14139;SDS011;7150;53.514;9.988;2024-03-07T15:04:06;12.80;;;8.10;;
14139;SDS011;7150;53.514;9.988;2024-03-07T15:06:36;15.57;;;8.67;;
14139;SDS011;7150;53.514;9.988;2024-03-07T15:09:07;12.60;;;8.30;;
14139;SDS011;7150;53.514;9.988;2024-03-07T15:11:35;12.43;;;7.80;;
14139;SDS011;7150;53.514;9.988;2024-03-07T15:14:07;14.23;;;8.33;;
14139;SDS011;7150;53.514;9.988;2024-03-07T15:16:34;12.80;;;8.07;;
14139;SDS011;7150;53.514;9.988;2024-03-07T15:19:02;12.97;;;8.27;;
14139;SDS011;7150;53.514;9.988;2024-03-07T15:21:28;13.20;;;8.70;;
14139;SDS011;7150;53.514;9.988;2024-03-07T15:23:55;16.03;;;8.00;;
14139;SDS011;7150;53.514;9.988;2024-03-07T15:26:21;14.73;;;7.80;;
14139;SDS011;7150;53.514;9.988;2024-03-07T15:28:49;13.30;;;8.23;;